Visit the IPS Meteostar Home Page IPSM South Arkansas Regional Airport FORECAST

El Dorado, Arkansas

59

62

60

65

55

58

65

70

30
30
38
38
32
32
45

8 miles away at South Arkansas Regional Airport 19:53 GMT

Weather:

Clear

Wind:

NNW 8 Gusting to 17 mph

Temperature:

59 ° F

Pressure:

30.27

Dew Point:

28 ° F

Relative Humidity:

30

Feels Like:

59 ° F

Visibility:

10 miles


Aviation Observations:

KELD 191953Z AUTO 33007G15KT 10SM CLR 15/M02 A3025 RMK AO2 SLP242 T01501022 $ =

National Weather Service Forecast:
Union

union- including the city of el dorado
1035 AM CST SUN NOV 19 2017

REST OF TODAY

Sunny. Highs in the lower 60s. North winds 5 to 10 mph.

TONIGHT

Clear. Lows around 30. Northeast winds 5 mph becoming southeast after midnight.

MONDAY

Partly cloudy. Highs around 60. South winds 5 mph.

MONDAY NIGHT

Partly cloudy. Lows in the upper 30s. South winds 5 mph.

TUESDAY

Partly cloudy in the morning, then mostly cloudy with a 20 percent chance of showers in the afternoon. Highs in the mid 60s. Southwest winds 5 mph.

TUESDAY NIGHT

Partly cloudy. Lows in the upper 30s.

WEDNESDAY

Mostly sunny. Highs in the mid 50s.

WEDNESDAY NIGHT

Mostly clear. Lows in the lower 30s.

THANKSGIVING DAY

Mostly sunny. Highs in the upper 50s.

THURSDAY NIGHT

Clear. Lows in the lower 30s.

FRIDAY

Sunny. Highs in the mid 60s.

FRIDAY NIGHT

Mostly clear. Lows in the mid 40s.

SATURDAY

Mostly sunny. Highs around 70.


Visit the IPS Meteostar Home Page